createdAt,value
2019-04-14T00:00:05.483Z,1019.96
2019-04-14T00:01:04.503Z,1019.94
2019-04-14T00:02:05.311Z,1019.98
2019-04-14T00:03:04.527Z,1019.96
2019-04-14T00:04:05.262Z,1019.95
2019-04-14T00:05:04.426Z,1019.95
2019-04-14T00:06:04.817Z,1019.94
2019-04-14T00:07:04.398Z,1019.93
2019-04-14T00:08:04.658Z,1019.92
2019-04-14T00:09:05.332Z,1019.96
2019-04-14T00:10:05.037Z,1019.94
2019-04-14T00:11:04.377Z,1019.95
2019-04-14T00:12:07.355Z,1019.95
2019-04-14T00:13:04.607Z,1019.95
2019-04-14T00:14:05.313Z,1019.93
2019-04-14T00:15:05.685Z,1019.96
2019-04-14T00:16:05.429Z,1019.93
2019-04-14T00:17:04.331Z,1019.91
2019-04-14T00:18:05.363Z,1019.93
2019-04-14T00:19:04.448Z,1019.93
2019-04-14T00:20:05.376Z,1019.95
2019-04-14T00:21:04.513Z,1019.92
2019-04-14T00:22:05.293Z,1019.97
2019-04-14T00:23:04.448Z,1019.95
2019-04-14T00:24:05.207Z,1019.96
2019-04-14T00:25:04.412Z,1019.93
2019-04-14T00:26:05.177Z,1019.99
2019-04-14T00:27:04.299Z,1019.92
2019-04-14T00:28:05.219Z,1019.87
2019-04-14T00:29:04.593Z,1019.92
2019-04-14T00:30:05.397Z,1019.96
2019-04-14T00:31:04.513Z,1019.93
2019-04-14T00:32:05.175Z,1019.91
2019-04-14T00:33:04.202Z,1019.92
2019-04-14T00:34:05.142Z,1019.90
2019-04-14T00:35:04.103Z,1019.88
2019-04-14T00:36:04.471Z,1019.91
2019-04-14T00:37:04.095Z,1019.91
2019-04-14T00:38:04.247Z,1019.93
2019-04-14T00:39:05.127Z,1019.83
2019-04-14T00:40:04.096Z,1019.89
2019-04-14T00:41:05.141Z,1019.87
2019-04-14T00:42:05.358Z,1019.88
2019-04-14T00:43:04.924Z,1019.88
2019-04-14T00:44:04.007Z,1019.89
2019-04-14T00:45:04.806Z,1019.90
2019-04-14T00:46:04.320Z,1019.85
2019-04-14T00:47:04.978Z,1019.87
2019-04-14T00:48:09.794Z,1019.87
2019-04-14T00:49:05.050Z,1019.88
2019-04-14T00:50:03.942Z,1019.84
2019-04-14T00:51:04.873Z,1019.87
2019-04-14T00:52:03.984Z,1019.84
2019-04-14T00:53:03.891Z,1019.84
2019-04-14T00:54:04.404Z,1019.85
2019-04-14T00:55:03.891Z,1019.89
2019-04-14T00:56:04.117Z,1019.84
2019-04-14T00:57:05.077Z,1019.85
2019-04-14T00:58:03.921Z,1019.83
2019-04-14T00:59:04.937Z,1019.86
2019-04-14T01:00:03.938Z,1019.84
2019-04-14T01:01:04.805Z,1019.86
2019-04-14T01:02:03.830Z,1019.86
2019-04-14T01:03:04.773Z,1019.84
2019-04-14T01:04:03.775Z,1019.84
2019-04-14T01:05:04.451Z,1019.88
2019-04-14T01:06:03.759Z,1019.84
2019-04-14T01:07:04.372Z,1019.83
2019-04-14T01:08:03.741Z,1019.84
2019-04-14T01:09:04.286Z,1019.85
2019-04-14T01:10:04.017Z,1019.87
2019-04-14T01:11:03.697Z,1019.87
2019-04-14T01:12:03.930Z,1019.86
2019-04-14T01:13:05.117Z,1019.86
2019-04-14T01:14:03.760Z,1019.86
2019-04-14T01:15:04.915Z,1019.95
2019-04-14T01:16:08.876Z,1019.91
2019-04-14T01:17:04.815Z,1019.95
2019-04-14T01:18:03.670Z,1019.93
2019-04-14T01:19:04.686Z,1019.90
2019-04-14T01:20:03.744Z,1019.93
2019-04-14T01:21:04.596Z,1019.93
2019-04-14T01:22:03.614Z,1019.95
2019-04-14T01:23:04.191Z,1019.92
2019-04-14T01:24:03.561Z,1019.91
2019-04-14T01:25:04.362Z,1019.88
2019-04-14T01:26:03.534Z,1019.92
2019-04-14T01:27:03.932Z,1019.93
2019-04-14T01:28:04.563Z,1019.92
2019-04-14T01:29:03.723Z,1019.91
2019-04-14T01:30:04.523Z,1019.87
2019-04-14T01:31:03.473Z,1019.87
2019-04-14T01:32:04.539Z,1019.87
2019-04-14T01:33:03.474Z,1019.89
2019-04-14T01:34:04.119Z,1019.97
2019-04-14T01:35:03.436Z,1019.94
2019-04-14T01:36:03.942Z,1019.89
2019-04-14T01:37:03.405Z,1019.93
2019-04-14T01:38:03.772Z,1019.94
2019-04-14T01:39:04.614Z,1019.95
2019-04-14T01:40:03.421Z,1019.92
2019-04-14T01:41:04.245Z,1019.93
2019-04-14T01:42:03.342Z,1019.97
2019-04-14T01:43:03.859Z,1019.96
2019-04-14T01:44:04.566Z,1019.97
2019-04-14T01:45:03.646Z,1019.92
2019-04-14T01:46:12.167Z,1019.94
2019-04-14T01:47:05.297Z,1019.96
2019-04-14T01:48:03.883Z,1019.97
2019-04-14T01:49:03.289Z,1019.97
2019-04-14T01:50:03.804Z,1019.99
2019-04-14T01:51:03.252Z,1020.00
2019-04-14T01:52:03.616Z,1020.00
2019-04-14T01:53:03.279Z,1019.99
2019-04-14T01:54:03.935Z,1020.03
2019-04-14T01:55:03.204Z,1019.99
2019-04-14T01:56:03.493Z,1019.98
2019-04-14T01:57:03.193Z,1019.99
2019-04-14T01:58:03.328Z,1019.99
2019-04-14T01:59:04.366Z,1019.99
2019-04-14T02:00:03.320Z,1019.97
2019-04-14T02:01:04.098Z,1019.96
2019-04-14T02:02:03.126Z,1019.96
2019-04-14T02:03:04.141Z,1019.95
2019-04-14T02:04:03.132Z,1019.96
2019-04-14T02:05:03.928Z,1019.97
2019-04-14T02:06:03.070Z,1019.95
2019-04-14T02:07:03.835Z,1019.96
2019-04-14T02:08:04.391Z,1019.96
2019-04-14T02:09:03.313Z,1019.98
2019-04-14T02:10:03.966Z,1019.94
2019-04-14T02:11:03.085Z,1019.96
2019-04-14T02:12:03.824Z,1019.97
2019-04-14T02:13:02.996Z,1019.98
2019-04-14T02:14:03.659Z,1020.00
2019-04-14T02:15:02.986Z,1019.94
2019-04-14T02:16:16.504Z,1019.94
2019-04-14T02:17:04.903Z,1019.96
2019-04-14T02:18:03.272Z,1019.99
2019-04-14T02:19:02.948Z,1019.94
2019-04-14T02:20:03.332Z,1019.94
2019-04-14T02:21:04.193Z,1019.91
2019-04-14T02:22:02.897Z,1019.98
2019-04-14T02:23:03.990Z,1019.99
2019-04-14T02:24:02.911Z,1019.95
2019-04-14T02:25:03.586Z,1019.95
2019-04-14T02:26:02.863Z,1019.94
2019-04-14T02:27:03.498Z,1019.94
2019-04-14T02:28:02.829Z,1019.91
2019-04-14T02:29:03.603Z,1019.89
2019-04-14T02:30:03.850Z,1019.96
2019-04-14T02:31:18.898Z,1019.94
2019-04-14T02:33:44.741Z,1019.93
2019-04-14T02:34:34.884Z,1019.91
2019-04-14T02:35:45.018Z,1019.90
2019-04-14T02:36:32.168Z,1019.93
2019-04-14T02:38:48.983Z,1019.91
2019-04-14T02:39:33.981Z,1019.94
2019-04-14T02:40:36.538Z,1019.93
2019-04-14T02:43:38.084Z,1019.92
2019-04-14T02:44:33.631Z,1019.89
2019-04-14T02:45:35.541Z,1019.92
2019-04-14T02:46:34.397Z,1019.89
2019-04-14T02:50:26.407Z,1019.95
2019-04-14T02:51:42.493Z,1019.95
2019-04-14T02:52:30.373Z,1019.94
2019-04-14T02:53:36.482Z,1019.98
2019-04-14T02:54:36.947Z,1019.94
2019-04-14T02:55:29.776Z,1019.93
2019-04-14T02:56:32.582Z,1019.95
2019-04-14T02:57:30.457Z,1019.97
2019-04-14T02:58:36.548Z,1020.00
2019-04-14T02:59:27.071Z,1020.00
2019-04-14T03:00:35.711Z,1019.94
2019-04-14T03:01:34.995Z,1020.00
2019-04-14T03:02:29.915Z,1019.99
2019-04-14T03:03:35.579Z,1019.93
2019-04-14T03:04:25.477Z,1019.95
2019-04-14T03:05:26.547Z,1019.98
2019-04-14T03:06:29.121Z,1019.94
2019-04-14T03:07:30.382Z,1019.96
2019-04-14T03:08:34.595Z,1019.98
2019-04-14T03:09:38.949Z,1019.95
2019-04-14T03:13:30.839Z,1019.95
2019-04-14T03:14:31.014Z,1019.91
2019-04-14T03:15:37.777Z,1019.95
2019-04-14T03:17:30.055Z,1019.95
2019-04-14T03:19:35.562Z,1019.95
2019-04-14T03:21:40.488Z,1019.94
2019-04-14T03:22:36.954Z,1019.93
2019-04-14T03:23:38.121Z,1019.95
2019-04-14T03:24:29.137Z,1019.92
2019-04-14T03:25:15.251Z,1019.96
2019-04-14T03:26:29.691Z,1019.92
2019-04-14T03:27:32.667Z,1019.96
2019-04-14T03:29:28.840Z,1019.98
2019-04-14T03:31:51.872Z,1020.00
2019-04-14T03:33:05.301Z,1019.95
2019-04-14T03:37:27.229Z,1019.98
2019-04-14T03:39:32.044Z,1019.90
2019-04-14T03:40:35.675Z,1019.91
2019-04-14T03:42:36.085Z,1019.88
2019-04-14T03:43:30.273Z,1019.91
2019-04-14T03:45:36.449Z,1019.92
2019-04-14T03:47:25.603Z,1019.94
2019-04-14T03:49:32.252Z,1019.90
2019-04-14T03:50:30.818Z,1019.94
2019-04-14T03:53:28.969Z,1019.94
2019-04-14T03:54:20.196Z,1019.91
2019-04-14T03:55:17.906Z,1019.94
2019-04-14T03:56:07.125Z,1019.95
2019-04-14T03:57:03.985Z,1019.94
2019-04-14T03:58:03.534Z,1019.93
2019-04-14T03:59:02.039Z,1019.88
2019-04-14T04:00:03.065Z,1019.92
2019-04-14T04:01:01.965Z,1019.91
2019-04-14T04:02:03.112Z,1019.92
2019-04-14T04:03:02.112Z,1019.92
2019-04-14T04:04:02.956Z,1019.92
2019-04-14T04:05:02.252Z,1019.93
2019-04-14T04:06:01.740Z,1019.91
2019-04-14T04:07:01.929Z,1019.89
2019-04-14T04:08:02.746Z,1019.93
2019-04-14T04:09:01.938Z,1019.91
2019-04-14T04:10:03.016Z,1019.92
2019-04-14T04:11:02.024Z,1019.90
2019-04-14T04:12:03.026Z,1019.90
2019-04-14T04:13:01.966Z,1019.89
2019-04-14T04:14:01.667Z,1019.94
2019-04-14T04:15:01.939Z,1019.90
2019-04-14T04:16:02.871Z,1019.91
2019-04-14T04:17:01.639Z,1019.89
2019-04-14T04:18:02.678Z,1019.94
2019-04-14T04:19:07.375Z,1019.91
2019-04-14T04:20:02.675Z,1019.98
2019-04-14T04:21:01.573Z,1019.96
2019-04-14T04:22:02.119Z,1019.94
2019-04-14T04:23:01.575Z,1019.93
2019-04-14T04:24:02.647Z,1019.98
2019-04-14T04:25:01.538Z,1019.98
2019-04-14T04:26:01.873Z,1020.00
2019-04-14T04:27:02.561Z,1019.97
2019-04-14T04:28:01.650Z,1019.98
2019-04-14T04:29:02.694Z,1019.97
2019-04-14T04:30:01.854Z,1020.01
2019-04-14T04:31:02.428Z,1019.98
2019-04-14T04:32:01.482Z,1019.98
2019-04-14T04:33:02.326Z,1020.00
2019-04-14T04:34:01.440Z,1019.98
2019-04-14T04:35:02.189Z,1020.02
2019-04-14T04:36:01.413Z,1019.96
2019-04-14T04:37:01.848Z,1020.01
2019-04-14T04:38:01.397Z,1020.00
2019-04-14T04:39:01.805Z,1020.00
2019-04-14T04:40:01.374Z,1020.00
2019-04-14T04:41:01.625Z,1020.00
2019-04-14T04:42:02.574Z,1020.01
2019-04-14T04:43:01.351Z,1020.04
2019-04-14T04:44:01.347Z,1020.04
2019-04-14T04:45:01.820Z,1020.08
2019-04-14T04:46:02.628Z,1020.05
2019-04-14T04:47:01.292Z,1020.04
2019-04-14T04:48:02.426Z,1020.05
2019-04-14T04:49:09.854Z,1020.04
2019-04-14T04:50:02.472Z,1020.00
2019-04-14T04:51:01.252Z,1020.04
2019-04-14T04:52:01.817Z,1020.04
2019-04-14T04:53:01.250Z,1020.05
2019-04-14T04:54:01.692Z,1020.02
2019-04-14T04:55:02.267Z,1020.05
2019-04-14T04:56:01.518Z,1020.03
2019-04-14T04:57:02.368Z,1020.03
2019-04-14T04:58:01.425Z,1020.01
2019-04-14T04:59:01.197Z,1020.06
2019-04-14T05:00:01.159Z,1020.11
2019-04-14T05:01:01.435Z,1020.11
2019-04-14T05:02:01.127Z,1020.09
2019-04-14T05:03:01.427Z,1020.12
2019-04-14T05:04:01.104Z,1020.09
2019-04-14T05:05:01.346Z,1020.11
2019-04-14T05:06:01.087Z,1020.10
2019-04-14T05:07:01.480Z,1020.08
2019-04-14T05:08:02.199Z,1020.12
2019-04-14T05:09:01.338Z,1020.15
2019-04-14T05:10:02.546Z,1020.14
2019-04-14T05:11:01.134Z,1020.17
2019-04-14T05:12:02.255Z,1020.17
2019-04-14T05:13:01.036Z,1020.13
2019-04-14T05:14:02.013Z,1020.15
2019-04-14T05:15:01.180Z,1020.16
2019-04-14T05:16:02.106Z,1020.16
2019-04-14T05:17:01.457Z,1020.21
2019-04-14T05:18:00.974Z,1020.19
2019-04-14T05:19:12.007Z,1020.22
2019-04-14T05:20:03.058Z,1020.22
2019-04-14T05:21:01.764Z,1020.28
2019-04-14T05:22:00.930Z,1020.26
2019-04-14T05:23:01.593Z,1020.23
2019-04-14T05:24:00.930Z,1020.28
2019-04-14T05:25:01.449Z,1020.25
2019-04-14T05:26:00.861Z,1020.25
2019-04-14T05:27:01.399Z,1020.28
2019-04-14T05:28:00.878Z,1020.24
2019-04-14T05:29:01.444Z,1020.25
2019-04-14T05:30:00.817Z,1020.26
2019-04-14T05:31:01.286Z,1020.28
2019-04-14T05:32:00.795Z,1020.30
2019-04-14T05:33:00.936Z,1020.28
2019-04-14T05:34:00.787Z,1020.26
2019-04-14T05:35:00.922Z,1020.28
2019-04-14T05:36:01.969Z,1020.32
2019-04-14T05:37:00.764Z,1020.32
2019-04-14T05:38:01.790Z,1020.39
2019-04-14T05:39:00.738Z,1020.35
2019-04-14T05:40:01.619Z,1020.33
2019-04-14T05:41:00.712Z,1020.38
2019-04-14T05:42:09.407Z,1020.29
2019-04-14T05:43:02.504Z,1020.36
2019-04-14T05:44:02.887Z,1020.33
2019-04-14T05:45:00.655Z,1020.33
2019-04-14T05:46:01.303Z,1020.32
2019-04-14T05:47:00.625Z,1020.33
2019-04-14T05:48:01.095Z,1020.33
2019-04-14T05:49:00.635Z,1020.31
2019-04-14T05:50:00.972Z,1020.33
2019-04-14T05:51:00.589Z,1020.34
2019-04-14T05:52:01.299Z,1020.40
2019-04-14T05:53:00.560Z,1020.36
2019-04-14T05:54:01.138Z,1020.39
2019-04-14T05:55:00.558Z,1020.40
2019-04-14T05:56:01.454Z,1020.38
2019-04-14T05:57:00.519Z,1020.41
2019-04-14T05:58:01.428Z,1020.42
2019-04-14T05:59:00.525Z,1020.41
2019-04-14T06:00:01.661Z,1020.40
2019-04-14T06:01:00.478Z,1020.39
2019-04-14T06:02:00.468Z,1020.45
2019-04-14T06:03:01.578Z,1020.42
2019-04-14T06:04:00.459Z,1020.45
2019-04-14T06:05:01.439Z,1020.45
2019-04-14T06:06:00.417Z,1020.46
2019-04-14T06:07:00.417Z,1020.44
2019-04-14T06:08:00.395Z,1020.49
2019-04-14T06:09:00.409Z,1020.45
2019-04-14T06:10:00.371Z,1020.50
2019-04-14T06:11:00.365Z,1020.46
2019-04-14T06:12:00.356Z,1020.49
2019-04-14T06:13:00.353Z,1020.45
2019-04-14T06:14:00.365Z,1020.46
2019-04-14T06:15:00.327Z,1020.43
2019-04-14T06:16:00.349Z,1020.51
2019-04-14T06:17:00.299Z,1020.45
2019-04-14T06:18:00.297Z,1020.44
2019-04-14T06:19:00.305Z,1020.44
2019-04-14T06:20:00.278Z,1020.51
2019-04-14T06:21:00.263Z,1020.44
2019-04-14T06:22:00.244Z,1020.46
2019-04-14T06:23:00.230Z,1020.46
2019-04-14T06:24:00.230Z,1020.49
2019-04-14T06:25:00.237Z,1020.49
2019-04-14T06:26:00.221Z,1020.45
2019-04-14T06:27:00.187Z,1020.43
2019-04-14T06:28:00.175Z,1020.50
2019-04-14T06:29:00.171Z,1020.49
2019-04-14T06:30:00.184Z,1020.45
2019-04-14T06:31:00.140Z,1020.46
2019-04-14T06:32:00.140Z,1020.47
2019-04-14T06:33:00.135Z,1020.47
2019-04-14T06:34:00.117Z,1020.44
2019-04-14T06:35:00.122Z,1020.46
2019-04-14T06:36:00.114Z,1020.52
2019-04-14T06:37:00.084Z,1020.51
2019-04-14T06:38:00.072Z,1020.52
2019-04-14T06:39:00.056Z,1020.48
2019-04-14T06:40:00.064Z,1020.54
2019-04-14T06:41:00.045Z,1020.53
2019-04-14T06:42:00.028Z,1020.56
2019-04-14T06:43:00.022Z,1020.58
2019-04-14T06:44:00.010Z,1020.50
2019-04-14T06:45:00.032Z,1020.54
2019-04-14T06:45:59.982Z,1020.57
2019-04-14T06:46:59.994Z,1020.57
2019-04-14T06:47:59.999Z,1020.58
2019-04-14T06:48:59.955Z,1020.58
2019-04-14T06:49:59.982Z,1020.56
2019-04-14T06:50:59.968Z,1020.55
2019-04-14T06:51:59.941Z,1020.61
2019-04-14T06:52:59.923Z,1020.60
2019-04-14T06:53:59.904Z,1020.65
2019-04-14T06:54:59.987Z,1020.63
2019-04-14T06:55:59.919Z,1020.62
2019-04-14T06:56:59.896Z,1020.64
2019-04-14T06:57:59.866Z,1020.63
2019-04-14T06:58:59.845Z,1020.67
2019-04-14T06:59:59.866Z,1020.70
2019-04-14T07:00:59.850Z,1020.64
2019-04-14T07:02:01.893Z,1020.67
2019-04-14T07:02:59.796Z,1020.68
2019-04-14T07:03:59.780Z,1020.69
2019-04-14T07:04:59.813Z,1020.68
2019-04-14T07:06:00.215Z,1020.68
2019-04-14T07:06:59.769Z,1020.71
2019-04-14T07:07:59.745Z,1020.70
2019-04-14T07:08:59.742Z,1020.70
2019-04-14T07:09:59.723Z,1020.70
2019-04-14T07:10:59.726Z,1020.66
2019-04-14T07:11:59.718Z,1020.70
2019-04-14T07:12:59.700Z,1020.72
2019-04-14T07:13:59.678Z,1020.70
2019-04-14T07:14:59.659Z,1020.68
2019-04-14T07:15:59.663Z,1020.70
2019-04-14T07:16:59.650Z,1020.71
2019-04-14T07:17:59.632Z,1020.72
2019-04-14T07:18:59.619Z,1020.72
2019-04-14T07:20:02.111Z,1020.73
2019-04-14T07:20:59.615Z,1020.83
2019-04-14T07:21:59.597Z,1020.78
2019-04-14T07:22:59.577Z,1020.68
2019-04-14T07:23:59.593Z,1020.73
2019-04-14T07:24:59.555Z,1020.74
2019-04-14T07:25:59.565Z,1020.74
2019-04-14T07:26:59.532Z,1020.74
2019-04-14T07:27:59.551Z,1020.75
2019-04-14T07:28:59.567Z,1020.73
2019-04-14T07:29:59.513Z,1020.74
2019-04-14T07:30:59.521Z,1020.76
2019-04-14T07:31:59.484Z,1020.77
2019-04-14T07:32:59.518Z,1020.79
2019-04-14T07:33:59.498Z,1020.81
2019-04-14T07:34:59.485Z,1020.78
2019-04-14T07:35:59.469Z,1020.72
2019-04-14T07:36:59.448Z,1020.77
2019-04-14T07:37:59.408Z,1020.77
2019-04-14T07:38:59.404Z,1020.74
2019-04-14T07:39:59.452Z,1020.74
2019-04-14T07:40:59.404Z,1020.76
2019-04-14T07:41:59.371Z,1020.71
2019-04-14T07:42:59.351Z,1020.75
2019-04-14T07:43:59.355Z,1020.74
2019-04-14T07:44:59.359Z,1020.75
2019-04-14T07:45:59.345Z,1020.76
2019-04-14T07:46:59.343Z,1020.78
2019-04-14T07:47:59.303Z,1020.78
2019-04-14T07:48:59.295Z,1020.76
2019-04-14T07:49:59.298Z,1020.76
2019-04-14T07:50:59.273Z,1020.75
2019-04-14T07:51:59.320Z,1020.78
2019-04-14T07:52:59.276Z,1020.72
2019-04-14T07:53:59.235Z,1020.75
2019-04-14T07:54:59.237Z,1020.81
2019-04-14T07:55:59.212Z,1020.72
2019-04-14T07:56:59.217Z,1020.74
2019-04-14T07:57:59.214Z,1020.76
2019-04-14T07:58:59.199Z,1020.75
2019-04-14T07:59:59.171Z,1020.76
2019-04-14T08:00:59.156Z,1020.79
2019-04-14T08:01:59.166Z,1020.80
2019-04-14T08:02:59.150Z,1020.84
2019-04-14T08:03:59.149Z,1020.82
2019-04-14T08:04:59.115Z,1020.84
2019-04-14T08:05:59.109Z,1020.82
2019-04-14T08:06:59.115Z,1020.84
2019-04-14T08:07:59.092Z,1020.86
2019-04-14T08:08:59.081Z,1020.83
2019-04-14T08:09:59.094Z,1020.88
2019-04-14T08:10:59.050Z,1020.85
2019-04-14T08:11:59.054Z,1020.90
2019-04-14T08:12:59.025Z,1020.93
2019-04-14T08:13:59.018Z,1020.91
2019-04-14T08:14:59.021Z,1020.93
2019-04-14T08:15:59.016Z,1020.93
2019-04-14T08:16:59.017Z,1020.93
2019-04-14T08:17:59.031Z,1020.89
2019-04-14T08:18:58.954Z,1020.89
2019-04-14T08:19:58.951Z,1020.90
2019-04-14T08:20:58.965Z,1020.88
2019-04-14T08:21:58.962Z,1020.90
2019-04-14T08:22:58.914Z,1020.95
2019-04-14T08:23:58.918Z,1020.96
2019-04-14T08:24:58.911Z,1020.90
2019-04-14T08:25:58.909Z,1020.95
2019-04-14T08:26:58.912Z,1020.94
2019-04-14T08:27:58.857Z,1020.93
2019-04-14T08:28:58.862Z,1020.94
2019-04-14T08:29:58.838Z,1020.95
2019-04-14T08:30:58.836Z,1020.94
2019-04-14T08:31:58.821Z,1020.96
2019-04-14T08:32:58.851Z,1020.94
2019-04-14T08:33:58.790Z,1021.00
2019-04-14T08:34:58.852Z,1020.98
2019-04-14T08:35:58.768Z,1021.01
2019-04-14T08:36:58.757Z,1021.00
2019-04-14T08:37:58.773Z,1020.99
2019-04-14T08:38:58.747Z,1020.99
2019-04-14T08:39:58.719Z,1020.98
2019-04-14T08:40:58.751Z,1020.98
2019-04-14T08:41:58.701Z,1021.03
2019-04-14T08:42:58.705Z,1021.03
2019-04-14T08:43:58.698Z,1021.05
2019-04-14T08:44:58.665Z,1021.06
2019-04-14T08:45:58.690Z,1021.02
2019-04-14T08:46:58.648Z,1021.07
2019-04-14T08:47:58.666Z,1021.01
2019-04-14T08:48:58.627Z,1021.07
2019-04-14T08:49:58.637Z,1021.04
2019-04-14T08:50:58.632Z,1021.05
2019-04-14T08:51:58.595Z,1021.06
2019-04-14T08:52:58.603Z,1021.06
2019-04-14T08:53:58.581Z,1021.02
2019-04-14T08:54:58.579Z,1021.04
2019-04-14T08:55:58.585Z,1021.02
2019-04-14T08:56:58.534Z,1021.04
2019-04-14T08:57:58.582Z,1021.01
2019-04-14T08:58:58.523Z,1021.04
2019-04-14T08:59:58.515Z,1021.06
2019-04-14T09:00:58.516Z,1021.08
2019-04-14T09:01:58.526Z,1021.07
2019-04-14T09:02:58.516Z,1021.10
2019-04-14T09:03:58.463Z,1021.06
2019-04-14T09:04:58.467Z,1021.09
2019-04-14T09:05:58.444Z,1021.10
2019-04-14T09:06:58.437Z,1021.04
2019-04-14T09:07:58.450Z,1021.02
2019-04-14T09:08:58.399Z,1021.03
2019-04-14T09:09:58.411Z,1021.02
2019-04-14T09:10:58.418Z,1020.98
2019-04-14T09:11:58.376Z,1021.09
2019-04-14T09:12:59.146Z,1021.02
2019-04-14T09:13:58.442Z,1020.97
2019-04-14T09:14:58.342Z,1020.93
2019-04-14T09:15:58.341Z,1021.00
2019-04-14T09:16:58.332Z,1021.00
2019-04-14T09:17:58.333Z,1021.01
2019-04-14T09:19:07.393Z,1020.94
2019-04-14T09:19:59.308Z,1020.96
2019-04-14T09:20:58.275Z,1020.89
2019-04-14T09:21:58.266Z,1020.92
2019-04-14T09:22:58.253Z,1020.93
2019-04-14T09:23:58.273Z,1021.01
2019-04-14T09:24:58.247Z,1021.00
2019-04-14T09:25:58.217Z,1020.97
2019-04-14T09:26:58.214Z,1021.00
2019-04-14T09:27:58.195Z,1021.02
2019-04-14T09:28:58.230Z,1021.01
2019-04-14T09:29:58.187Z,1020.99
2019-04-14T09:30:58.192Z,1020.96
2019-04-14T09:31:58.151Z,1020.99
2019-04-14T09:32:58.142Z,1021.02
2019-04-14T09:33:58.162Z,1020.99
2019-04-14T09:34:58.121Z,1021.00
2019-04-14T09:35:58.161Z,1021.08
2019-04-14T09:36:58.131Z,1021.05
2019-04-14T09:37:58.089Z,1021.09
2019-04-14T09:38:58.099Z,1021.13
2019-04-14T09:39:58.069Z,1021.13
2019-04-14T09:40:58.065Z,1021.12
2019-04-14T09:41:58.060Z,1021.16
2019-04-14T09:42:58.023Z,1021.14
2019-04-14T09:43:58.078Z,1021.17
2019-04-14T09:44:58.033Z,1021.17
2019-04-14T09:45:58.005Z,1021.18
2019-04-14T09:46:58.014Z,1021.23
2019-04-14T09:47:58.035Z,1021.23
2019-04-14T09:48:57.991Z,1021.15
2019-04-14T09:49:57.959Z,1021.21
2019-04-14T09:51:04.682Z,1021.19
2019-04-14T09:51:58.941Z,1021.24
2019-04-14T09:52:57.929Z,1021.21
2019-04-14T09:53:58.049Z,1021.26
2019-04-14T09:54:57.894Z,1021.29
2019-04-14T09:55:57.889Z,1021.29
2019-04-14T09:56:57.879Z,1021.27
2019-04-14T09:57:57.866Z,1021.26
2019-04-14T09:58:57.875Z,1021.23
2019-04-14T09:59:57.840Z,1021.24
2019-04-14T10:00:57.878Z,1021.25
2019-04-14T10:01:57.847Z,1021.22
2019-04-14T10:02:57.840Z,1021.24
2019-04-14T10:03:57.812Z,1021.24
2019-04-14T10:04:57.799Z,1021.22
2019-04-14T10:05:57.776Z,1021.16
2019-04-14T10:06:57.769Z,1021.20
2019-04-14T10:07:57.767Z,1021.25
2019-04-14T10:08:57.779Z,1021.20
2019-04-14T10:09:57.741Z,1021.21
2019-04-14T10:10:57.752Z,1021.16
2019-04-14T10:11:57.709Z,1021.23
2019-04-14T10:12:57.694Z,1021.16
2019-04-14T10:13:57.711Z,1021.23
2019-04-14T10:14:57.757Z,1021.23
2019-04-14T10:15:57.684Z,1021.22
2019-04-14T10:16:57.663Z,1021.27
2019-04-14T10:17:57.682Z,1021.28
2019-04-14T10:18:57.628Z,1021.25
2019-04-14T10:19:57.648Z,1021.25
2019-04-14T10:20:57.615Z,1021.37
2019-04-14T10:21:57.616Z,1021.32
2019-04-14T10:22:57.582Z,1021.33
2019-04-14T10:23:57.581Z,1021.30
2019-04-14T10:24:57.592Z,1021.33
2019-04-14T10:25:57.560Z,1021.33
2019-04-14T10:26:57.545Z,1021.35
2019-04-14T10:27:57.541Z,1021.30
2019-04-14T10:28:57.522Z,1021.32
2019-04-14T10:29:57.534Z,1021.38
2019-04-14T10:30:57.516Z,1021.45
2019-04-14T10:31:57.489Z,1021.40
2019-04-14T10:32:57.489Z,1021.42
2019-04-14T10:33:57.458Z,1021.44
2019-04-14T10:34:57.498Z,1021.44
2019-04-14T10:35:57.440Z,1021.47
2019-04-14T10:36:57.440Z,1021.45
2019-04-14T10:37:57.424Z,1021.43
2019-04-14T10:38:57.433Z,1021.49
2019-04-14T10:39:57.426Z,1021.48
2019-04-14T10:40:57.384Z,1021.54
2019-04-14T10:41:57.375Z,1021.53
2019-04-14T10:42:57.418Z,1021.50
2019-04-14T10:43:57.359Z,1021.53
2019-04-14T10:44:57.371Z,1021.54
2019-04-14T10:45:57.340Z,1021.52
2019-04-14T10:46:57.334Z,1021.52
2019-04-14T10:47:57.326Z,1021.50
2019-04-14T10:48:57.294Z,1021.52
2019-04-14T10:49:57.314Z,1021.50
2019-04-14T10:50:57.282Z,1021.48
2019-04-14T10:51:57.261Z,1021.51
2019-04-14T10:52:57.257Z,1021.52
2019-04-14T10:53:57.270Z,1021.50
2019-04-14T10:54:57.242Z,1021.52
2019-04-14T10:55:57.286Z,1021.43
2019-04-14T10:56:57.225Z,1021.45
2019-04-14T10:57:57.213Z,1021.49
2019-04-14T10:58:57.195Z,1021.44
2019-04-14T10:59:57.178Z,1021.45
2019-04-14T11:00:57.211Z,1021.42
2019-04-14T11:01:57.182Z,1021.50
2019-04-14T11:02:57.157Z,1021.49
2019-04-14T11:03:57.144Z,1021.44
2019-04-14T11:04:57.140Z,1021.43
2019-04-14T11:05:57.177Z,1021.47
2019-04-14T11:06:57.108Z,1021.47
2019-04-14T11:07:57.231Z,1021.47
2019-04-14T11:08:57.105Z,1021.46
2019-04-14T11:09:57.080Z,1021.48
2019-04-14T11:10:57.101Z,1021.51
2019-04-14T11:11:57.047Z,1021.47
2019-04-14T11:12:57.049Z,1021.51
2019-04-14T11:13:57.050Z,1021.47
2019-04-14T11:14:57.021Z,1021.45
2019-04-14T11:15:57.058Z,1021.45
2019-04-14T11:16:56.986Z,1021.44
2019-04-14T11:17:56.985Z,1021.44
2019-04-14T11:18:56.979Z,1021.41
2019-04-14T11:19:56.958Z,1021.44
2019-04-14T11:20:56.976Z,1021.46
2019-04-14T11:21:56.954Z,1021.38
2019-04-14T11:23:03.272Z,1021.44
2019-04-14T11:23:57.940Z,1021.43
2019-04-14T11:24:56.919Z,1021.39
2019-04-14T11:25:56.932Z,1021.43
2019-04-14T11:26:56.887Z,1021.44
2019-04-14T11:27:56.869Z,1021.41
2019-04-14T11:29:58.036Z,1021.39
2019-04-14T11:30:56.857Z,1021.38
2019-04-14T11:32:57.989Z,1021.44
2019-04-14T11:33:56.800Z,1021.39
2019-04-14T11:34:56.793Z,1021.39
2019-04-14T11:35:56.797Z,1021.43
2019-04-14T11:37:57.964Z,1021.40
2019-04-14T11:38:56.914Z,1021.35
2019-04-14T11:39:56.919Z,1021.40
2019-04-14T11:40:56.907Z,1021.39
2019-04-14T11:41:56.946Z,1021.42
2019-04-14T11:42:56.949Z,1021.41
2019-04-14T11:43:56.736Z,1021.40
2019-04-14T11:44:56.702Z,1021.40
2019-04-14T11:45:56.669Z,1021.41
2019-04-14T11:46:56.819Z,1021.40
2019-04-14T11:47:56.663Z,1021.42
2019-04-14T11:48:56.673Z,1021.43
2019-04-14T11:49:56.642Z,1021.39
2019-04-14T11:50:56.612Z,1021.39
2019-04-14T11:51:56.604Z,1021.32
2019-04-14T11:52:56.592Z,1021.33
2019-04-14T11:53:56.618Z,1021.36
2019-04-14T11:54:56.575Z,1021.36
2019-04-14T11:55:56.554Z,1021.31
2019-04-14T11:56:56.599Z,1021.37
2019-04-14T11:57:56.539Z,1021.36
2019-04-14T11:58:56.538Z,1021.36
2019-04-14T11:59:56.562Z,1021.39
2019-04-14T12:00:56.501Z,1021.42
2019-04-14T12:01:56.547Z,1021.38
2019-04-14T12:02:56.483Z,1021.39
2019-04-14T12:03:56.516Z,1021.36
2019-04-14T12:04:56.466Z,1021.36
2019-04-14T12:05:56.470Z,1021.40
2019-04-14T12:06:56.463Z,1021.37
2019-04-14T12:07:56.423Z,1021.36
2019-04-14T12:08:56.410Z,1021.31
2019-04-14T12:09:56.407Z,1021.33
2019-04-14T12:10:56.418Z,1021.33
2019-04-14T12:11:56.453Z,1021.28
2019-04-14T12:12:56.374Z,1021.38
2019-04-14T12:13:56.351Z,1021.29
2019-04-14T12:14:56.344Z,1021.34
2019-04-14T12:15:56.343Z,1021.38
2019-04-14T12:16:56.361Z,1021.39
2019-04-14T12:17:56.325Z,1021.33
2019-04-14T12:18:56.346Z,1021.41
2019-04-14T12:19:56.297Z,1021.36
2019-04-14T12:20:56.275Z,1021.35
2019-04-14T12:22:07.662Z,1021.30
2019-04-14T12:22:57.274Z,1021.33
2019-04-14T12:23:56.262Z,1021.37
2019-04-14T12:24:56.268Z,1021.35
2019-04-14T12:26:05.063Z,1021.30
2019-04-14T12:26:57.255Z,1021.28
2019-04-14T12:27:56.220Z,1021.30
2019-04-14T12:28:56.228Z,1021.32
2019-04-14T12:29:56.739Z,1021.28
2019-04-14T12:30:57.501Z,1021.25
2019-04-14T12:31:57.336Z,1021.28
2019-04-14T12:32:56.145Z,1021.30
2019-04-14T12:33:56.676Z,1021.27